Time;durP1;ratioP1;P1;durP2;ratioP2;P2;SDS_P1;SDS_P2;PMS_P1;PMS_P2;Temp;Humidity;BMP_temperature;BMP_pressure;BME280_temperature;BME280_humidity;BME280_pressure;Samples;Min_cycle;Max_cycle;Signal;HPM_P1;HPM_P2
2021/03/01 00:00:36;;;;;;;104.10;46.23;;;;;;;;;;4328563;33;20308;-54
2021/03/01 00:03:02;;;;;;;93.40;44.57;;;;;;;;;;4328913;33;20600;-53
2021/03/01 00:05:28;;;;;;;84.00;41.03;;;;;;;;;;4328691;33;20615;-53
2021/03/01 00:07:53;;;;;;;96.63;46.40;;;;;;;;;;4328605;33;20692;-53
2021/03/01 00:10:19;;;;;;;76.13;40.77;;;;;;;;;;4328589;33;20711;-54
2021/03/01 00:12:46;;;;;;;77.07;36.30;;;;;;;;;;4327148;33;20227;-54
2021/03/01 00:15:15;;;;;;;68.80;35.37;;;;;;;;;;4328405;33;20307;-54
2021/03/01 00:17:41;;;;;;;74.40;36.37;;;;;;;;;;4327484;33;20246;-53
2021/03/01 00:20:10;;;;;;;81.43;39.67;;;;;;;;;;4328647;33;20719;-54
2021/03/01 00:22:35;;;;;;;66.03;34.97;;;;;;;;;;4328182;33;20314;-54
2021/03/01 00:25:02;;;;;;;70.50;36.70;;;;;;;;;;4328304;33;20300;-54
2021/03/01 00:27:27;;;;;;;70.40;36.97;;;;;;;;;;4326731;33;20255;-53
2021/03/01 00:29:53;;;;;;;83.33;40.50;;;;;;;;;;4326671;33;20743;-53
2021/03/01 00:32:18;;;;;;;73.10;38.43;;;;;;;;;;4325466;33;20336;-52
2021/03/01 00:34:44;;;;;;;74.30;36.83;;;;;;;;;;4327918;33;20309;-53
2021/03/01 00:37:09;;;;;;;73.20;37.60;;;;;;;;;;4328093;33;20604;-51
2021/03/01 00:39:35;;;;;;;67.43;35.17;;;;;;;;;;4328262;33;20249;-52
2021/03/01 00:42:00;;;;;;;69.87;35.23;;;;;;;;;;4326955;33;20428;-52
2021/03/01 00:44:26;;;;;;;73.83;36.07;;;;;;;;;;4328406;33;20313;-52
2021/03/01 00:46:52;;;;;;;71.77;40.43;;;;;;;;;;4327984;33;20658;-53
2021/03/01 00:49:17;;;;;;;64.63;34.23;;;;;;;;;;4328227;33;20265;-52
2021/03/01 00:51:43;;;;;;;71.53;34.40;;;;;;;;;;4327889;33;20282;-52
2021/03/01 00:54:08;;;;;;;68.47;34.43;;;;;;;;;;4327041;33;20630;-52
2021/03/01 00:56:34;;;;;;;91.40;38.83;;;;;;;;;;4328281;33;20281;-53
2021/03/01 00:58:59;;;;;;;91.47;42.20;;;;;;;;;;4327816;33;20219;-52
2021/03/01 01:01:25;;;;;;;102.17;55.10;;;;;;;;;;4327736;33;20287;-53
2021/03/01 01:03:50;;;;;;;85.23;49.73;;;;;;;;;;4326820;33;20247;-53
2021/03/01 01:06:16;;;;;;;71.40;43.20;;;;;;;;;;4327778;33;20715;-52
2021/03/01 01:08:41;;;;;;;71.93;39.77;;;;;;;;;;4327524;33;20298;-52
2021/03/01 01:11:06;;;;;;;73.83;39.77;;;;;;;;;;4327803;33;20302;-52
2021/03/01 01:13:32;;;;;;;69.37;35.83;;;;;;;;;;4327858;33;20329;-53
2021/03/01 01:15:59;;;;;;;63.73;35.33;;;;;;;;;;4327671;33;20368;-52
2021/03/01 01:18:25;;;;;;;64.77;34.23;;;;;;;;;;4327676;33;20230;-52
2021/03/01 01:20:51;;;;;;;61.87;32.80;;;;;;;;;;4327893;33;20294;-53
2021/03/01 01:23:16;;;;;;;67.03;34.67;;;;;;;;;;4327742;33;20676;-53
2021/03/01 01:25:42;;;;;;;79.40;35.87;;;;;;;;;;4327223;33;20319;-53
2021/03/01 01:28:08;;;;;;;73.23;35.53;;;;;;;;;;4327876;33;20495;-52
2021/03/01 01:30:34;;;;;;;72.00;35.93;;;;;;;;;;4326311;33;20337;-53
2021/03/01 01:32:59;;;;;;;79.90;38.10;;;;;;;;;;4326425;33;20811;-52
2021/03/01 01:35:25;;;;;;;63.07;32.73;;;;;;;;;;4327837;33;20628;-52
2021/03/01 01:37:50;;;;;;;90.87;36.47;;;;;;;;;;4327781;33;20218;-52
2021/03/01 01:40:21;;;;;;;53.60;28.47;;;;;;;;;;4327653;33;20329;-52
2021/03/01 01:42:47;;;;;;;55.47;29.10;;;;;;;;;;4327544;33;20361;-51
2021/03/01 01:45:19;;;;;;;57.60;30.77;;;;;;;;;;4327584;33;20286;-54
2021/03/01 01:47:45;;;;;;;63.63;29.97;;;;;;;;;;4327557;33;20214;-52
2021/03/01 01:50:12;;;;;;;60.30;31.27;;;;;;;;;;4327666;33;20296;-56
2021/03/01 01:52:38;;;;;;;62.03;31.73;;;;;;;;;;4326224;33;20305;-52
2021/03/01 01:55:05;;;;;;;62.90;32.40;;;;;;;;;;4327775;33;20286;-53
2021/03/01 01:57:31;;;;;;;76.47;36.13;;;;;;;;;;4327708;33;20214;-52
2021/03/01 01:59:57;;;;;;;71.37;35.47;;;;;;;;;;4326198;33;20894;-52
2021/03/01 02:02:22;;;;;;;82.07;34.60;;;;;;;;;;4327772;33;20273;-52
2021/03/01 02:04:56;;;;;;;97.50;41.73;;;;;;;;;;4327419;33;20277;-52
2021/03/01 02:07:39;;;;;;;117.93;50.97;;;;;;;;;;4327225;33;20223;-52
2021/03/01 02:10:27;;;;;;;90.13;41.60;;;;;;;;;;4327489;33;20238;-53
2021/03/01 02:13:17;;;;;;;61.20;32.27;;;;;;;;;;4327376;33;20419;-54
2021/03/01 02:16:06;;;;;;;54.80;31.13;;;;;;;;;;4327505;33;20195;-52
2021/03/01 02:18:31;;;;;;;60.30;31.47;;;;;;;;;;4327205;33;20239;-52
2021/03/01 02:21:07;;;;;;;63.13;31.10;;;;;;;;;;4326161;33;20336;-52
2021/03/01 02:23:32;;;;;;;71.07;37.57;;;;;;;;;;4327445;33;20239;-53
2021/03/01 02:26:03;;;;;;;70.07;33.80;;;;;;;;;;4327511;33;20668;-60
2021/03/01 02:28:32;;;;;;;67.73;34.00;;;;;;;;;;4327597;33;20230;-60
2021/03/01 02:30:59;;;;;;;63.57;34.73;;;;;;;;;;4327356;33;20234;-61
2021/03/01 02:33:30;;;;;;;71.40;34.13;;;;;;;;;;4327413;33;20573;-60
2021/03/01 02:36:01;;;;;;;60.63;30.57;;;;;;;;;;4325998;33;20649;-60
2021/03/01 02:38:28;;;;;;;58.30;29.27;;;;;;;;;;4329752;33;20294;-60
2021/03/01 02:40:55;;;;;;;53.30;28.87;;;;;;;;;;4330075;33;20279;-59
2021/03/01 02:43:22;;;;;;;45.27;23.50;;;;;;;;;;4330182;33;20219;-60
2021/03/01 02:45:48;;;;;;;37.00;21.07;;;;;;;;;;4329763;33;20735;-60
2021/03/01 02:48:15;;;;;;;28.33;16.73;;;;;;;;;;4329865;33;20223;-60
2021/03/01 02:50:44;;;;;;;30.07;18.40;;;;;;;;;;4329904;33;20253;-59
2021/03/01 02:53:11;;;;;;;33.40;17.03;;;;;;;;;;4330092;33;20297;-60
2021/03/01 02:55:38;;;;;;;22.97;13.87;;;;;;;;;;4328508;33;20279;-59
2021/03/01 02:58:04;;;;;;;24.67;13.47;;;;;;;;;;4329715;33;20223;-59
2021/03/01 03:00:30;;;;;;;31.33;12.47;;;;;;;;;;4329639;33;20688;-59
2021/03/01 03:02:57;;;;;;;25.87;14.90;;;;;;;;;;4329695;33;20245;-53
2021/03/01 03:05:24;;;;;;;27.23;17.00;;;;;;;;;;4328377;33;20505;-53
2021/03/01 03:07:52;;;;;;;30.83;17.40;;;;;;;;;;4329720;33;20760;-53
2021/03/01 03:10:18;;;;;;;25.37;16.07;;;;;;;;;;4329354;33;20572;-53
2021/03/01 03:12:44;;;;;;;29.67;18.33;;;;;;;;;;4329479;33;20219;-51
2021/03/01 03:15:15;;;;;;;31.57;19.27;;;;;;;;;;4328442;33;20783;-53
2021/03/01 03:17:41;;;;;;;35.27;18.90;;;;;;;;;;4328295;33;20231;-52
2021/03/01 03:20:07;;;;;;;32.90;19.57;;;;;;;;;;4329634;33;20725;-52
2021/03/01 03:22:34;;;;;;;23.90;14.60;;;;;;;;;;4329166;33;20700;-52
2021/03/01 03:25:00;;;;;;;25.67;16.80;;;;;;;;;;4329348;33;20358;-53
2021/03/01 03:27:25;;;;;;;52.30;26.53;;;;;;;;;;4328327;33;20382;-52
2021/03/01 03:29:51;;;;;;;69.50;36.00;;;;;;;;;;4328398;33;20254;-52
2021/03/01 03:32:17;;;;;;;38.03;22.00;;;;;;;;;;4329323;33;20352;-52
2021/03/01 03:34:42;;;;;;;43.07;24.10;;;;;;;;;;4329627;33;20301;-51
2021/03/01 03:37:13;;;;;;;43.70;23.30;;;;;;;;;;4329430;33;20608;-52
2021/03/01 03:39:49;;;;;;;31.93;21.50;;;;;;;;;;4329380;33;20621;-52
2021/03/01 03:42:18;;;;;;;33.43;21.07;;;;;;;;;;4329711;33;20522;-52
2021/03/01 03:44:44;;;;;;;28.77;18.70;;;;;;;;;;4327890;33;20261;-51
2021/03/01 03:47:11;;;;;;;35.70;20.20;;;;;;;;;;4328293;33;20657;-52
2021/03/01 03:49:38;;;;;;;29.37;17.73;;;;;;;;;;4328582;33;20348;-53
2021/03/01 03:52:05;;;;;;;44.47;27.07;;;;;;;;;;4327948;33;20226;-52
2021/03/01 03:54:33;;;;;;;40.37;24.70;;;;;;;;;;4329281;33;20284;-52
2021/03/01 03:57:01;;;;;;;31.17;18.47;;;;;;;;;;4329192;33;20509;-52
2021/03/01 03:59:32;;;;;;;32.43;18.67;;;;;;;;;;4329258;33;20306;-52
2021/03/01 04:01:58;;;;;;;22.50;15.10;;;;;;;;;;4329281;33;20227;-51
2021/03/01 04:04:25;;;;;;;20.83;13.50;;;;;;;;;;4327781;33;20258;-52
2021/03/01 04:06:52;;;;;;;22.47;14.63;;;;;;;;;;4328931;33;20316;-52
2021/03/01 04:09:21;;;;;;;21.37;12.90;;;;;;;;;;4328975;33;20273;-52
2021/03/01 04:11:48;;;;;;;24.27;14.23;;;;;;;;;;4329015;33;20321;-52
2021/03/01 04:14:24;;;;;;;20.97;13.20;;;;;;;;;;4327801;33;20306;-53
2021/03/01 04:16:54;;;;;;;23.50;13.20;;;;;;;;;;4352324;32;20265;-52
2021/03/01 04:19:22;;;;;;;22.97;14.77;;;;;;;;;;4329064;33;20220;-52
2021/03/01 04:21:51;;;;;;;42.93;21.57;;;;;;;;;;4329004;33;20200;-58
2021/03/01 04:24:18;;;;;;;44.87;25.30;;;;;;;;;;4328815;33;20231;-58
2021/03/01 04:26:45;;;;;;;44.33;24.00;;;;;;;;;;4329238;33;20300;-60
2021/03/01 04:29:11;;;;;;;37.37;18.70;;;;;;;;;;4328988;33;20227;-59
2021/03/01 04:31:38;;;;;;;32.13;17.10;;;;;;;;;;4328696;33;20645;-56
2021/03/01 04:34:06;;;;;;;25.17;17.07;;;;;;;;;;4328754;33;20649;-58
2021/03/01 04:36:33;;;;;;;37.37;22.13;;;;;;;;;;4328947;33;20207;-59
2021/03/01 04:38:59;;;;;;;45.57;28.10;;;;;;;;;;4328899;33;20227;-58
2021/03/01 04:41:25;;;;;;;47.30;28.70;;;;;;;;;;4328789;33;20288;-58
2021/03/01 04:43:51;;;;;;;52.67;29.50;;;;;;;;;;4328763;33;20263;-58
2021/03/01 04:46:17;;;;;;;48.67;28.70;;;;;;;;;;4328679;33;20285;-59
2021/03/01 04:48:45;;;;;;;48.70;27.00;;;;;;;;;;4328676;33;20294;-59
2021/03/01 04:51:11;;;;;;;53.03;29.37;;;;;;;;;;4328495;33;20755;-58
2021/03/01 04:53:37;;;;;;;55.20;30.40;;;;;;;;;;4328505;33;20227;-58
2021/03/01 04:56:05;;;;;;;55.63;28.73;;;;;;;;;;4327509;33;20305;-58
2021/03/01 04:58:32;;;;;;;49.60;28.77;;;;;;;;;;4328452;33;20290;-58
2021/03/01 05:01:01;;;;;;;56.10;31.80;;;;;;;;;;4328024;33;20273;-58
2021/03/01 05:03:28;;;;;;;69.87;35.50;;;;;;;;;;4328737;33;20640;-58
2021/03/01 05:05:57;;;;;;;89.43;48.40;;;;;;;;;;4328506;33;20629;-57
2021/03/01 05:08:23;;;;;;;89.43;44.97;;;;;;;;;;4328692;33;20223;-58
2021/03/01 05:10:49;;;;;;;86.47;45.97;;;;;;;;;;4328390;33;20312;-58
2021/03/01 05:13:14;;;;;;;83.00;42.70;;;;;;;;;;4328704;33;20254;-58
2021/03/01 05:15:40;;;;;;;98.63;47.47;;;;;;;;;;4328911;33;20707;-59
2021/03/01 05:18:05;;;;;;;76.57;43.07;;;;;;;;;;4328631;33;20318;-59
2021/03/01 05:20:31;;;;;;;84.67;47.07;;;;;;;;;;4328976;33;20357;-58
2021/03/01 05:22:56;;;;;;;97.13;51.90;;;;;;;;;;4328291;33;20302;-58
2021/03/01 05:25:22;;;;;;;92.13;51.50;;;;;;;;;;4328172;33;20694;-58
2021/03/01 05:27:47;;;;;;;112.43;53.30;;;;;;;;;;4328235;33;20700;-57
2021/03/01 05:30:13;;;;;;;115.67;59.83;;;;;;;;;;4328456;33;20617;-61
2021/03/01 05:32:39;;;;;;;130.57;71.17;;;;;;;;;;4328024;33;20692;-59
2021/03/01 05:35:06;;;;;;;134.63;54.53;;;;;;;;;;4328218;33;20310;-57
2021/03/01 05:37:31;;;;;;;128.40;68.47;;;;;;;;;;4328194;33;20208;-59
2021/03/01 05:39:57;;;;;;;127.70;67.93;;;;;;;;;;4327879;33;20313;-58
2021/03/01 05:42:25;;;;;;;134.87;74.37;;;;;;;;;;4328257;33;20549;-58
2021/03/01 05:44:51;;;;;;;112.77;59.67;;;;;;;;;;4328049;33;20286;-58
2021/03/01 05:47:19;;;;;;;103.40;44.40;;;;;;;;;;4327746;33;20344;-58
2021/03/01 05:49:46;;;;;;;78.17;41.80;;;;;;;;;;4327196;33;20663;-58
2021/03/01 05:52:16;;;;;;;63.63;34.17;;;;;;;;;;4328117;33;20222;-59
2021/03/01 05:54:43;;;;;;;115.13;40.07;;;;;;;;;;4328157;33;20285;-58
2021/03/01 05:57:09;;;;;;;65.63;38.80;;;;;;;;;;4328136;33;20572;-58
2021/03/01 05:59:35;;;;;;;72.00;39.43;;;;;;;;;;4327864;33;20231;-58
2021/03/01 06:02:01;;;;;;;79.40;47.03;;;;;;;;;;4326481;33;20558;-58
2021/03/01 06:04:27;;;;;;;83.70;50.67;;;;;;;;;;4327930;33;20265;-58
2021/03/01 06:06:53;;;;;;;85.03;47.20;;;;;;;;;;4328041;33;20602;-58
2021/03/01 06:09:19;;;;;;;69.23;41.50;;;;;;;;;;4326861;33;20223;-58
2021/03/01 06:11:47;;;;;;;61.57;37.67;;;;;;;;;;4328059;33;20300;-58
2021/03/01 06:14:13;;;;;;;76.13;38.57;;;;;;;;;;4328947;33;20262;-57
2021/03/01 06:17:16;;;;;;;54.40;31.20;;;;;;;;;;4330873;33;20262;-51
2021/03/01 06:19:43;;;;;;;57.03;28.73;;;;;;;;;;4329573;33;20261;-52
2021/03/01 06:22:09;;;;;;;46.23;24.57;;;;;;;;;;4329557;33;20363;-52
2021/03/01 06:24:34;;;;;;;48.80;27.13;;;;;;;;;;4330485;33;20265;-52
2021/03/01 06:27:00;;;;;;;74.33;43.40;;;;;;;;;;4330511;33;20286;-52
2021/03/01 06:29:26;;;;;;;87.10;55.73;;;;;;;;;;4330254;33;20696;-51
2021/03/01 06:31:51;;;;;;;55.23;34.70;;;;;;;;;;4329919;33;20329;-53
2021/03/01 06:34:26;;;;;;;47.13;25.10;;;;;;;;;;4330562;33;20218;-53
2021/03/01 06:37:01;;;;;;;42.10;21.73;;;;;;;;;;4329596;33;20285;-53
2021/03/01 06:39:31;;;;;;;38.20;21.03;;;;;;;;;;4330569;33;20356;-52
2021/03/01 06:42:20;;;;;;;34.63;21.93;;;;;;;;;;4330815;33;20301;-53
2021/03/01 06:44:46;;;;;;;48.57;28.07;;;;;;;;;;4330355;33;20680;-52
2021/03/01 06:47:12;;;;;;;55.30;30.43;;;;;;;;;;4330519;33;20703;-54
2021/03/01 06:49:40;;;;;;;46.87;28.37;;;;;;;;;;4330128;33;20223;-51
2021/03/01 06:52:06;;;;;;;58.33;30.03;;;;;;;;;;4329969;33;20212;-51
2021/03/01 06:54:32;;;;;;;58.57;30.83;;;;;;;;;;4329921;33;20241;-52
2021/03/01 06:56:58;;;;;;;55.60;33.53;;;;;;;;;;4329907;33;20279;-58
2021/03/01 06:59:24;;;;;;;64.07;32.80;;;;;;;;;;4330225;33;20235;-59
2021/03/01 07:01:58;;;;;;;50.80;30.70;;;;;;;;;;4329376;33;20586;-57
2021/03/01 07:04:23;;;;;;;64.07;34.27;;;;;;;;;;4329406;33;20313;-57
2021/03/01 07:06:50;;;;;;;58.40;32.00;;;;;;;;;;4329131;33;20244;-58
2021/03/01 07:09:17;;;;;;;38.87;26.10;;;;;;;;;;4329237;33;20347;-58
2021/03/01 07:11:44;;;;;;;27.97;17.57;;;;;;;;;;4329299;33;20448;-57
2021/03/01 07:14:12;;;;;;;27.83;16.33;;;;;;;;;;4327687;33;20301;-59
2021/03/01 07:16:48;;;;;;;31.00;16.10;;;;;;;;;;4329023;33;20216;-58
2021/03/01 07:19:15;;;;;;;29.77;16.00;;;;;;;;;;4328707;33;20227;-58
2021/03/01 07:21:43;;;;;;;31.77;18.40;;;;;;;;;;4328149;33;20606;-58
2021/03/01 07:24:09;;;;;;;29.53;17.77;;;;;;;;;;4327586;33;20238;-59
2021/03/01 07:26:36;;;;;;;24.63;15.20;;;;;;;;;;4327917;33;20728;-56
2021/03/01 07:29:11;;;;;;;23.47;15.23;;;;;;;;;;4329064;33;20215;-57
2021/03/01 07:31:41;;;;;;;29.83;16.57;;;;;;;;;;4329598;33;20609;-58
2021/03/01 07:34:08;;;;;;;55.60;29.97;;;;;;;;;;4328918;33;20321;-57
2021/03/01 07:36:34;;;;;;;39.97;18.77;;;;;;;;;;4329440;33;20557;-57
2021/03/01 07:39:04;;;;;;;26.67;18.20;;;;;;;;;;4328933;33;20258;-57
2021/03/01 07:41:29;;;;;;;26.97;19.30;;;;;;;;;;4328526;33;20553;-57
2021/03/01 07:43:55;;;;;;;33.00;20.53;;;;;;;;;;4328153;33;20242;-57
2021/03/01 07:46:30;;;;;;;31.23;17.87;;;;;;;;;;4328465;33;20309;-58
2021/03/01 07:48:55;;;;;;;62.77;20.27;;;;;;;;;;4328721;33;20211;-59
2021/03/01 07:51:49;;;;;;;30.23;18.10;;;;;;;;;;4328710;33;20296;-59
2021/03/01 07:54:18;;;;;;;35.07;22.03;;;;;;;;;;4328825;33;20227;-60
2021/03/01 07:56:49;;;;;;;34.67;17.50;;;;;;;;;;4328891;33;20296;-60
2021/03/01 07:59:29;;;;;;;40.03;22.60;;;;;;;;;;4328860;33;20235;-51
2021/03/01 08:02:08;;;;;;;39.63;23.60;;;;;;;;;;4328809;33;20195;-52
2021/03/01 08:04:34;;;;;;;35.90;19.97;;;;;;;;;;4328435;33;20301;-52
2021/03/01 08:07:00;;;;;;;69.23;44.87;;;;;;;;;;4328997;33;20559;-53
2021/03/01 08:09:53;;;;;;;30.93;19.47;;;;;;;;;;4328497;33;20328;-52
2021/03/01 08:12:24;;;;;;;26.47;17.20;;;;;;;;;;4328159;33;20271;-51
2021/03/01 08:14:53;;;;;;;22.20;13.83;;;;;;;;;;4327976;33;20545;-51
2021/03/01 08:17:24;;;;;;;24.30;14.80;;;;;;;;;;4328283;33;20271;-53
2021/03/01 08:19:50;;;;;;;19.10;14.57;;;;;;;;;;4328124;33;20732;-52
2021/03/01 08:22:18;;;;;;;49.40;16.73;;;;;;;;;;4327892;33;20315;-52
2021/03/01 08:24:51;;;;;;;29.63;17.00;;;;;;;;;;4327973;33;20281;-53
2021/03/01 08:27:26;;;;;;;33.00;18.20;;;;;;;;;;4326702;33;20239;-52
2021/03/01 08:30:20;;;;;;;26.60;16.60;;;;;;;;;;4328088;33;20297;-52
2021/03/01 08:33:10;;;;;;;35.50;17.60;;;;;;;;;;4327831;33;20223;-52
2021/03/01 08:35:36;;;;;;;31.40;16.40;;;;;;;;;;4326563;33;20795;-52
2021/03/01 08:38:02;;;;;;;30.77;17.03;;;;;;;;;;4327981;33;20229;-53
2021/03/01 08:40:28;;;;;;;27.93;17.43;;;;;;;;;;4326735;33;20321;-52
2021/03/01 08:43:05;;;;;;;32.23;17.23;;;;;;;;;;4327404;33;20661;-52
2021/03/01 08:45:38;;;;;;;24.17;16.73;;;;;;;;;;4326608;33;20231;-53
2021/03/01 08:48:17;;;;;;;36.07;17.83;;;;;;;;;;4326150;33;20265;-51
2021/03/01 08:50:43;;;;;;;29.60;17.37;;;;;;;;;;4326360;33;20231;-54
2021/03/01 08:53:11;;;;;;;25.97;15.57;;;;;;;;;;4327522;33;20223;-52
2021/03/01 08:55:39;;;;;;;22.20;13.70;;;;;;;;;;4325995;33;20802;-52
2021/03/01 08:58:12;;;;;;;21.33;11.87;;;;;;;;;;4327238;33;20734;-52
2021/03/01 09:00:47;;;;;;;84.93;12.57;;;;;;;;;;4326123;33;20285;-51
2021/03/01 09:03:18;;;;;;;14.17;7.93;;;;;;;;;;4326929;33;20302;-51
2021/03/01 09:05:46;;;;;;;15.43;11.57;;;;;;;;;;4326043;33;20692;-51
2021/03/01 09:08:13;;;;;;;19.23;11.23;;;;;;;;;;4327285;33;20649;-51
2021/03/01 09:10:45;;;;;;;28.13;13.13;;;;;;;;;;4327555;33;20247;-51
2021/03/01 09:13:17;;;;;;;21.50;12.57;;;;;;;;;;4326238;33;20239;-51
2021/03/01 09:15:42;;;;;;;23.97;12.70;;;;;;;;;;4327443;33;20278;-51
2021/03/01 09:18:09;;;;;;;20.13;12.07;;;;;;;;;;4327251;33;20250;-51
2021/03/01 09:20:52;;;;;;;17.93;10.97;;;;;;;;;;4326181;33;20234;-51
2021/03/01 09:23:43;;;;;;;17.10;11.73;;;;;;;;;;4325850;33;20283;-51
2021/03/01 09:26:19;;;;;;;12.60;9.50;;;;;;;;;;4338876;32;20637;-52
2021/03/01 09:28:46;;;;;;;20.57;10.63;;;;;;;;;;4327002;33;20609;-51
2021/03/01 09:31:13;;;;;;;24.33;11.80;;;;;;;;;;4326875;33;20799;-52
2021/03/01 09:33:40;;;;;;;23.70;11.67;;;;;;;;;;4325944;33;20266;-52
2021/03/01 09:36:06;;;;;;;18.87;11.23;;;;;;;;;;4327257;33;20319;-53
2021/03/01 09:38:32;;;;;;;32.40;13.67;;;;;;;;;;4327050;33;20455;-52
2021/03/01 09:41:02;;;;;;;14.73;11.13;;;;;;;;;;4327176;33;20289;-54
2021/03/01 09:43:28;;;;;;;27.40;12.27;;;;;;;;;;4326866;33;20621;-53
2021/03/01 09:45:54;;;;;;;25.93;11.20;;;;;;;;;;4327028;33;20312;-54
2021/03/01 09:48:20;;;;;;;15.83;10.10;;;;;;;;;;4329530;33;20235;-53
2021/03/01 09:50:46;;;;;;;16.50;10.43;;;;;;;;;;4330376;33;20353;-52
2021/03/01 09:53:14;;;;;;;22.07;11.70;;;;;;;;;;4328469;33;20310;-53
2021/03/01 09:55:40;;;;;;;27.73;11.47;;;;;;;;;;4330121;33;20688;-51
2021/03/01 09:58:24;;;;;;;20.67;12.30;;;;;;;;;;4328812;33;20293;-53
2021/03/01 10:00:49;;;;;;;14.57;9.00;;;;;;;;;;4329723;33;20338;-52
2021/03/01 10:03:15;;;;;;;17.80;8.67;;;;;;;;;;4329531;33;20223;-52
2021/03/01 10:05:49;;;;;;;16.17;8.87;;;;;;;;;;4328925;33;20226;-52
2021/03/01 10:08:21;;;;;;;23.17;9.87;;;;;;;;;;4329395;33;20290;-52
2021/03/01 10:10:47;;;;;;;15.37;8.07;;;;;;;;;;4328693;33;20294;-52
2021/03/01 10:13:25;;;;;;;15.13;9.33;;;;;;;;;;4329706;33;20258;-53
2021/03/01 10:15:51;;;;;;;18.57;8.80;;;;;;;;;;4329907;33;20621;-52
2021/03/01 10:18:16;;;;;;;18.87;9.73;;;;;;;;;;4329802;33;20341;-51
2021/03/01 10:20:47;;;;;;;14.83;8.17;;;;;;;;;;4329770;33;20274;-53
2021/03/01 10:23:13;;;;;;;12.53;7.80;;;;;;;;;;4328456;33;20261;-57
2021/03/01 10:25:41;;;;;;;12.53;6.83;;;;;;;;;;4329730;33;20270;-57
2021/03/01 10:28:24;;;;;;;11.20;7.20;;;;;;;;;;4329422;33;20317;-56
2021/03/01 10:31:03;;;;;;;15.20;9.50;;;;;;;;;;4329255;33;20245;-57
2021/03/01 10:33:29;;;;;;;14.37;7.40;;;;;;;;;;4320309;33;20251;-51
2021/03/01 10:36:11;;;;;;;15.20;9.63;;;;;;;;;;4325534;33;20719;-52
2021/03/01 10:39:18;;;;;;;13.87;6.73;;;;;;;;;;4322386;33;20723;-52
2021/03/01 10:41:52;;;;;;;12.93;6.23;;;;;;;;;;4273012;33;20413;-52
2021/03/01 10:44:26;;;;;;;8.10;6.27;;;;;;;;;;4337806;32;20239;-52
2021/03/01 10:46:51;;;;;;;7.73;5.40;;;;;;;;;;4320098;33;20280;-51
2021/03/01 10:49:30;;;;;;;14.20;6.40;;;;;;;;;;4323902;33;20355;-51
2021/03/01 10:51:58;;;;;;;16.93;8.70;;;;;;;;;;4325877;32;20227;-53
2021/03/01 10:54:28;;;;;;;9.27;6.00;;;;;;;;;;4316153;33;20658;-52
2021/03/01 10:56:55;;;;;;;13.03;6.57;;;;;;;;;;4347476;32;20584;-52
2021/03/01 10:59:20;;;;;;;14.93;5.50;;;;;;;;;;4322336;33;20351;-52
2021/03/01 11:01:47;;;;;;;8.97;5.87;;;;;;;;;;4317864;33;20380;-53
2021/03/01 11:04:15;;;;;;;35.50;8.10;;;;;;;;;;4321012;33;20259;-51
2021/03/01 11:06:40;;;;;;;11.97;6.10;;;;;;;;;;4326764;33;20242;-51
2021/03/01 11:09:08;;;;;;;10.07;5.00;;;;;;;;;;4322448;33;20274;-50
2021/03/01 11:11:35;;;;;;;10.57;5.97;;;;;;;;;;4325917;33;20219;-53
2021/03/01 11:14:01;;;;;;;15.10;5.93;;;;;;;;;;4326399;33;20740;-52
2021/03/01 11:16:26;;;;;;;21.33;6.10;;;;;;;;;;4332020;33;20318;-56
2021/03/01 11:18:52;;;;;;;26.37;6.07;;;;;;;;;;4322085;33;20307;-51
2021/03/01 11:21:18;;;;;;;23.23;10.03;;;;;;;;;;4324632;33;20289;-52
2021/03/01 11:23:44;;;;;;;12.20;6.67;;;;;;;;;;4323212;33;20305;-51
2021/03/01 11:26:10;;;;;;;12.30;6.10;;;;;;;;;;4325355;33;20298;-52
2021/03/01 11:28:36;;;;;;;15.97;5.97;;;;;;;;;;4317421;33;20219;-53
2021/03/01 11:31:03;;;;;;;25.60;11.40;;;;;;;;;;4317846;33;20237;-52
2021/03/01 11:33:29;;;;;;;12.40;6.50;;;;;;;;;;4325368;33;20737;-52
2021/03/01 11:35:54;;;;;;;12.63;6.53;;;;;;;;;;4349116;32;20306;-51
2021/03/01 11:38:23;;;;;;;39.63;25.70;;;;;;;;;;4324455;33;20212;-50
2021/03/01 11:40:50;;;;;;;12.67;6.37;;;;;;;;;;4318335;33;20380;-51
2021/03/01 11:43:16;;;;;;;17.67;8.33;;;;;;;;;;4322969;33;20420;-51
2021/03/01 11:45:42;;;;;;;35.83;16.50;;;;;;;;;;4327199;33;20282;-51
2021/03/01 11:48:11;;;;;;;15.60;6.87;;;;;;;;;;4319972;33;20294;-51
2021/03/01 11:50:37;;;;;;;444.17;255.03;;;;;;;;;;4350222;32;20302;-51
2021/03/01 11:53:03;;;;;;;19.33;11.97;;;;;;;;;;4320825;33;20314;-51
2021/03/01 11:55:29;;;;;;;22.73;9.73;;;;;;;;;;4320529;33;20722;-53
2021/03/01 11:57:54;;;;;;;15.67;9.27;;;;;;;;;;4322349;33;20750;-52
2021/03/01 12:00:20;;;;;;;68.30;43.80;;;;;;;;;;4326328;33;20327;-51
2021/03/01 12:02:46;;;;;;;18.90;8.10;;;;;;;;;;4319406;33;20404;-52
2021/03/01 12:05:12;;;;;;;10.67;6.97;;;;;;;;;;4320825;33;20238;-51
2021/03/01 12:07:38;;;;;;;19.03;7.77;;;;;;;;;;4318806;33;20388;-51
2021/03/01 12:10:04;;;;;;;14.97;6.77;;;;;;;;;;4318607;33;20274;-52
2021/03/01 12:12:30;;;;;;;11.67;6.17;;;;;;;;;;4321901;33;20294;-52
2021/03/01 12:14:55;;;;;;;8.27;5.90;;;;;;;;;;4321388;33;20352;-52
2021/03/01 12:17:21;;;;;;;17.73;6.07;;;;;;;;;;4318643;33;20735;-52
2021/03/01 12:19:46;;;;;;;21.03;7.57;;;;;;;;;;4323868;33;20316;-52
2021/03/01 12:22:12;;;;;;;9.87;6.10;;;;;;;;;;4329802;33;20656;-52
2021/03/01 12:24:38;;;;;;;9.03;5.83;;;;;;;;;;4319388;33;20253;-52
2021/03/01 12:27:03;;;;;;;9.80;5.80;;;;;;;;;;4320535;33;20374;-53
2021/03/01 12:29:29;;;;;;;8.07;5.23;;;;;;;;;;4331270;33;20633;-53
2021/03/01 12:31:55;;;;;;;12.47;5.47;;;;;;;;;;4319648;33;20294;-52
2021/03/01 12:34:20;;;;;;;7.63;4.77;;;;;;;;;;4319041;33;20700;-52
2021/03/01 12:36:46;;;;;;;9.23;5.80;;;;;;;;;;4316919;33;20348;-52
2021/03/01 12:39:12;;;;;;;11.27;5.93;;;;;;;;;;4318382;33;20755;-54
2021/03/01 12:41:37;;;;;;;12.33;5.80;;;;;;;;;;4316193;33;20790;-56
2021/03/01 12:44:03;;;;;;;10.53;5.83;;;;;;;;;;4316067;33;20592;-52
2021/03/01 12:46:28;;;;;;;12.80;6.27;;;;;;;;;;4315537;33;20291;-52
2021/03/01 12:48:54;;;;;;;9.50;6.27;;;;;;;;;;4317915;33;20661;-53
2021/03/01 12:51:19;;;;;;;12.07;6.23;;;;;;;;;;4320345;33;20330;-52
2021/03/01 12:53:45;;;;;;;19.17;9.00;;;;;;;;;;4342711;32;20596;-52
2021/03/01 12:56:10;;;;;;;15.97;8.93;;;;;;;;;;4322128;33;20302;-52
2021/03/01 12:58:36;;;;;;;12.40;6.40;;;;;;;;;;4343664;32;20318;-51
2021/03/01 13:01:02;;;;;;;12.83;7.70;;;;;;;;;;4348635;32;20370;-51
2021/03/01 13:03:27;;;;;;;15.03;8.47;;;;;;;;;;4325946;33;20254;-51
2021/03/01 13:05:56;;;;;;;13.43;7.20;;;;;;;;;;4313256;33;20627;-51
2021/03/01 13:08:22;;;;;;;13.37;8.80;;;;;;;;;;4320746;33;20239;-51
2021/03/01 13:10:47;;;;;;;19.33;8.03;;;;;;;;;;4322590;33;20455;-51
2021/03/01 13:13:13;;;;;;;15.40;9.23;;;;;;;;;;4321369;33;20257;-51
2021/03/01 13:15:39;;;;;;;12.23;7.93;;;;;;;;;;4345499;32;20306;-51
2021/03/01 13:18:05;;;;;;;21.57;12.13;;;;;;;;;;4316674;33;20238;-51
2021/03/01 13:20:30;;;;;;;17.03;10.43;;;;;;;;;;4326144;33;20290;-52
2021/03/01 13:22:56;;;;;;;11.57;7.17;;;;;;;;;;4319463;33;20281;-51
2021/03/01 13:25:22;;;;;;;13.67;7.53;;;;;;;;;;4324662;33;20894;-51
2021/03/01 13:27:47;;;;;;;25.73;7.70;;;;;;;;;;4327020;33;20231;-51
2021/03/01 13:30:13;;;;;;;21.57;9.70;;;;;;;;;;4318516;33;20295;-53
2021/03/01 13:32:39;;;;;;;15.10;9.73;;;;;;;;;;4339827;32;20254;-52
2021/03/01 13:35:05;;;;;;;12.63;7.70;;;;;;;;;;4325469;33;20290;-51
2021/03/01 13:37:31;;;;;;;9.40;7.03;;;;;;;;;;4339973;32;20361;-52
2021/03/01 13:39:57;;;;;;;15.00;7.10;;;;;;;;;;4342065;33;20639;-53
2021/03/01 13:42:22;;;;;;;12.70;7.13;;;;;;;;;;4344409;32;20759;-52
2021/03/01 13:44:48;;;;;;;18.33;7.73;;;;;;;;;;4322086;33;20257;-52
2021/03/01 13:47:13;;;;;;;18.30;9.10;;;;;;;;;;4324201;33;20283;-52
2021/03/01 13:49:39;;;;;;;24.87;10.93;;;;;;;;;;4318880;33;20239;-52
2021/03/01 13:52:04;;;;;;;16.93;7.93;;;;;;;;;;4312876;33;20308;-52
2021/03/01 13:54:30;;;;;;;14.00;9.33;;;;;;;;;;4318267;33;20231;-52
2021/03/01 13:56:55;;;;;;;14.73;9.93;;;;;;;;;;4327190;33;20756;-52
2021/03/01 13:59:21;;;;;;;26.00;11.40;;;;;;;;;;4320757;33;20232;-52
2021/03/01 14:01:47;;;;;;;18.53;12.17;;;;;;;;;;4339743;33;20610;-52
2021/03/01 14:04:13;;;;;;;14.20;10.37;;;;;;;;;;4348107;32;20642;-51
2021/03/01 14:06:38;;;;;;;22.80;17.33;;;;;;;;;;4344811;33;20479;-52
2021/03/01 14:09:05;;;;;;;31.43;12.57;;;;;;;;;;4322522;33;20235;-52
2021/03/01 14:11:31;;;;;;;20.13;12.00;;;;;;;;;;4333867;33;20226;-52
2021/03/01 14:13:57;;;;;;;20.00;11.33;;;;;;;;;;4310904;33;20341;-53
2021/03/01 14:16:22;;;;;;;17.90;11.30;;;;;;;;;;4311661;33;20324;-54
2021/03/01 14:18:48;;;;;;;16.03;11.53;;;;;;;;;;4311319;33;20232;-52
2021/03/01 14:21:14;;;;;;;16.23;11.33;;;;;;;;;;4311378;33;20304;-52
2021/03/01 14:23:39;;;;;;;16.07;11.70;;;;;;;;;;4318690;33;20223;-53
2021/03/01 14:26:05;;;;;;;32.80;19.00;;;;;;;;;;4326831;33;20279;-52